sensor_id;sensor_type;location;lat;lon;timestamp;P1;P2;P0
80396;PMS5003;69721;55.894;-3.052;2023-10-13T00:00:23;3;3;
80396;PMS5003;69721;55.894;-3.052;2023-10-13T00:02:49;4;4;
80396;PMS5003;69721;55.894;-3.052;2023-10-13T00:05:14;4;4;
80396;PMS5003;69721;55.894;-3.052;2023-10-13T00:07:40;4;4;
80396;PMS5003;69721;55.894;-3.052;2023-10-13T00:10:05;4;4;
80396;PMS5003;69721;55.894;-3.052;2023-10-13T00:12:31;6;2;
80396;PMS5003;69721;55.894;-3.052;2023-10-13T00:14:56;7;4;
80396;PMS5003;69721;55.894;-3.052;2023-10-13T00:17:21;3;3;
80396;PMS5003;69721;55.894;-3.052;2023-10-13T00:19:47;2;2;
80396;PMS5003;69721;55.894;-3.052;2023-10-13T00:22:13;3;2;
80396;PMS5003;69721;55.894;-3.052;2023-10-13T00:24:38;4;4;
80396;PMS5003;69721;55.894;-3.052;2023-10-13T00:27:03;3;3;
80396;PMS5003;69721;55.894;-3.052;2023-10-13T00:29:29;4;4;
80396;PMS5003;69721;55.894;-3.052;2023-10-13T00:31:54;4;4;
80396;PMS5003;69721;55.894;-3.052;2023-10-13T00:34:20;4;3;
80396;PMS5003;69721;55.894;-3.052;2023-10-13T00:36:46;7;6;
80396;PMS5003;69721;55.894;-3.052;2023-10-13T00:39:11;7;7;
80396;PMS5003;69721;55.894;-3.052;2023-10-13T00:41:36;9;4;
80396;PMS5003;69721;55.894;-3.052;2023-10-13T00:44:01;6;6;
80396;PMS5003;69721;55.894;-3.052;2023-10-13T00:46:27;4;4;
80396;PMS5003;69721;55.894;-3.052;2023-10-13T00:48:52;6;6;
80396;PMS5003;69721;55.894;-3.052;2023-10-13T00:51:18;3;3;
80396;PMS5003;69721;55.894;-3.052;2023-10-13T00:53:43;5;5;
80396;PMS5003;69721;55.894;-3.052;2023-10-13T00:56:10;4;4;
80396;PMS5003;69721;55.894;-3.052;2023-10-13T00:58:35;6;5;
80396;PMS5003;69721;55.894;-3.052;2023-10-13T01:01:01;6;6;
80396;PMS5003;69721;55.894;-3.052;2023-10-13T01:03:26;6;5;
80396;PMS5003;69721;55.894;-3.052;2023-10-13T01:05:53;10;5;
80396;PMS5003;69721;55.894;-3.052;2023-10-13T01:08:17;5;3;
80396;PMS5003;69721;55.894;-3.052;2023-10-13T01:10:43;3;3;
80396;PMS5003;69721;55.894;-3.052;2023-10-13T01:13:08;5;4;
80396;PMS5003;69721;55.894;-3.052;2023-10-13T01:15:33;7;6;
80396;PMS5003;69721;55.894;-3.052;2023-10-13T01:20:24;7;6;
80396;PMS5003;69721;55.894;-3.052;2023-10-13T01:22:50;4;2;
80396;PMS5003;69721;55.894;-3.052;2023-10-13T01:25:15;3;3;
80396;PMS5003;69721;55.894;-3.052;2023-10-13T01:27:40;5;4;
80396;PMS5003;69721;55.894;-3.052;2023-10-13T01:30:06;6;4;
80396;PMS5003;69721;55.894;-3.052;2023-10-13T01:32:31;2;2;
80396;PMS5003;69721;55.894;-3.052;2023-10-13T01:34:57;4;4;
80396;PMS5003;69721;55.894;-3.052;2023-10-13T01:37:22;4;4;
80396;PMS5003;69721;55.894;-3.052;2023-10-13T01:39:47;3;2;
80396;PMS5003;69721;55.894;-3.052;2023-10-13T01:42:13;4;2;
80396;PMS5003;69721;55.894;-3.052;2023-10-13T01:44:38;2;2;
80396;PMS5003;69721;55.894;-3.052;2023-10-13T01:47:04;5;5;
80396;PMS5003;69721;55.894;-3.052;2023-10-13T01:49:29;4;4;
80396;PMS5003;69721;55.894;-3.052;2023-10-13T01:51:55;4;2;
80396;PMS5003;69721;55.894;-3.052;2023-10-13T01:54:20;5;4;
80396;PMS5003;69721;55.894;-3.052;2023-10-13T01:56:46;4;3;
80396;PMS5003;69721;55.894;-3.052;2023-10-13T01:59:11;5;4;
80396;PMS5003;69721;55.894;-3.052;2023-10-13T02:01:37;4;4;
80396;PMS5003;69721;55.894;-3.052;2023-10-13T02:04:03;4;4;
80396;PMS5003;69721;55.894;-3.052;2023-10-13T02:06:28;3;1;
80396;PMS5003;69721;55.894;-3.052;2023-10-13T02:08:53;1;1;
80396;PMS5003;69721;55.894;-3.052;2023-10-13T02:11:19;3;2;
80396;PMS5003;69721;55.894;-3.052;2023-10-13T02:13:44;3;3;
80396;PMS5003;69721;55.894;-3.052;2023-10-13T02:16:10;4;3;
80396;PMS5003;69721;55.894;-3.052;2023-10-13T02:18:35;3;3;
80396;PMS5003;69721;55.894;-3.052;2023-10-13T02:21:02;5;5;
80396;PMS5003;69721;55.894;-3.052;2023-10-13T02:23:26;6;4;
80396;PMS5003;69721;55.894;-3.052;2023-10-13T02:25:51;2;2;
80396;PMS5003;69721;55.894;-3.052;2023-10-13T02:28:17;5;4;
80396;PMS5003;69721;55.894;-3.052;2023-10-13T02:30:43;3;2;
80396;PMS5003;69721;55.894;-3.052;2023-10-13T02:33:08;4;1;
80396;PMS5003;69721;55.894;-3.052;2023-10-13T02:35:33;6;6;
80396;PMS5003;69721;55.894;-3.052;2023-10-13T02:37:59;4;4;
80396;PMS5003;69721;55.894;-3.052;2023-10-13T02:40:25;5;5;
80396;PMS5003;69721;55.894;-3.052;2023-10-13T02:42:50;3;3;
80396;PMS5003;69721;55.894;-3.052;2023-10-13T02:45:16;2;2;
80396;PMS5003;69721;55.894;-3.052;2023-10-13T02:47:42;2;2;
80396;PMS5003;69721;55.894;-3.052;2023-10-13T02:50:08;3;3;
80396;PMS5003;69721;55.894;-3.052;2023-10-13T02:52:33;2;2;
80396;PMS5003;69721;55.894;-3.052;2023-10-13T02:54:59;4;4;
80396;PMS5003;69721;55.894;-3.052;2023-10-13T02:57:24;5;5;
80396;PMS5003;69721;55.894;-3.052;2023-10-13T02:59:50;3;3;
80396;PMS5003;69721;55.894;-3.052;2023-10-13T03:02:16;6;4;
80396;PMS5003;69721;55.894;-3.052;2023-10-13T03:04:41;5;4;
80396;PMS5003;69721;55.894;-3.052;2023-10-13T03:07:07;7;6;
80396;PMS5003;69721;55.894;-3.052;2023-10-13T03:09:32;5;4;
80396;PMS5003;69721;55.894;-3.052;2023-10-13T03:11:58;4;3;
80396;PMS5003;69721;55.894;-3.052;2023-10-13T03:14:23;5;3;
80396;PMS5003;69721;55.894;-3.052;2023-10-13T03:16:49;5;5;
80396;PMS5003;69721;55.894;-3.052;2023-10-13T03:19:14;4;3;
80396;PMS5003;69721;55.894;-3.052;2023-10-13T03:21:40;5;4;
80396;PMS5003;69721;55.894;-3.052;2023-10-13T03:24:06;5;4;
80396;PMS5003;69721;55.894;-3.052;2023-10-13T03:26:31;5;3;
80396;PMS5003;69721;55.894;-3.052;2023-10-13T03:28:56;3;2;
80396;PMS5003;69721;55.894;-3.052;2023-10-13T03:31:22;2;2;
80396;PMS5003;69721;55.894;-3.052;2023-10-13T03:33:47;3;3;
80396;PMS5003;69721;55.894;-3.052;2023-10-13T03:36:14;3;3;
80396;PMS5003;69721;55.894;-3.052;2023-10-13T03:38:40;3;3;
80396;PMS5003;69721;55.894;-3.052;2023-10-13T03:41:06;4;4;
80396;PMS5003;69721;55.894;-3.052;2023-10-13T03:43:32;6;3;
80396;PMS5003;69721;55.894;-3.052;2023-10-13T03:45:57;5;3;
80396;PMS5003;69721;55.894;-3.052;2023-10-13T03:48:23;2;2;
80396;PMS5003;69721;55.894;-3.052;2023-10-13T03:50:48;2;2;
80396;PMS5003;69721;55.894;-3.052;2023-10-13T03:53:14;4;4;
80396;PMS5003;69721;55.894;-3.052;2023-10-13T03:55:39;5;3;
80396;PMS5003;69721;55.894;-3.052;2023-10-13T03:58:04;3;2;
80396;PMS5003;69721;55.894;-3.052;2023-10-13T04:00:30;2;2;
80396;PMS5003;69721;55.894;-3.052;2023-10-13T04:02:55;3;3;
80396;PMS5003;69721;55.894;-3.052;2023-10-13T04:05:22;3;3;
80396;PMS5003;69721;55.894;-3.052;2023-10-13T04:07:47;4;4;
80396;PMS5003;69721;55.894;-3.052;2023-10-13T04:10:13;2;2;
80396;PMS5003;69721;55.894;-3.052;2023-10-13T04:12:38;5;3;
80396;PMS5003;69721;55.894;-3.052;2023-10-13T04:15:04;2;2;
80396;PMS5003;69721;55.894;-3.052;2023-10-13T04:17:29;4;2;
80396;PMS5003;69721;55.894;-3.052;2023-10-13T04:19:55;2;2;
80396;PMS5003;69721;55.894;-3.052;2023-10-13T04:22:20;3;3;
80396;PMS5003;69721;55.894;-3.052;2023-10-13T04:24:47;3;3;
80396;PMS5003;69721;55.894;-3.052;2023-10-13T04:27:11;4;3;
80396;PMS5003;69721;55.894;-3.052;2023-10-13T04:29:37;2;2;
80396;PMS5003;69721;55.894;-3.052;2023-10-13T04:32:02;5;3;
80396;PMS5003;69721;55.894;-3.052;2023-10-13T04:34:28;3;3;
80396;PMS5003;69721;55.894;-3.052;2023-10-13T04:36:53;3;3;
80396;PMS5003;69721;55.894;-3.052;2023-10-13T04:39:19;4;2;
80396;PMS5003;69721;55.894;-3.052;2023-10-13T04:41:44;5;4;
80396;PMS5003;69721;55.894;-3.052;2023-10-13T04:44:11;5;4;
80396;PMS5003;69721;55.894;-3.052;2023-10-13T04:46:35;2;2;
80396;PMS5003;69721;55.894;-3.052;2023-10-13T04:49:01;6;4;
80396;PMS5003;69721;55.894;-3.052;2023-10-13T04:51:26;6;4;
80396;PMS5003;69721;55.894;-3.052;2023-10-13T04:53:52;3;3;
80396;PMS5003;69721;55.894;-3.052;2023-10-13T04:56:17;4;2;
80396;PMS5003;69721;55.894;-3.052;2023-10-13T04:58:43;3;1;
80396;PMS5003;69721;55.894;-3.052;2023-10-13T05:01:08;2;2;
80396;PMS5003;69721;55.894;-3.052;2023-10-13T05:03:34;3;3;
80396;PMS5003;69721;55.894;-3.052;2023-10-13T05:05:59;3;3;
80396;PMS5003;69721;55.894;-3.052;2023-10-13T05:08:25;5;2;
80396;PMS5003;69721;55.894;-3.052;2023-10-13T05:10:50;3;3;
80396;PMS5003;69721;55.894;-3.052;2023-10-13T05:13:16;4;2;
80396;PMS5003;69721;55.894;-3.052;2023-10-13T05:15:43;4;3;
80396;PMS5003;69721;55.894;-3.052;2023-10-13T05:18:07;3;3;
80396;PMS5003;69721;55.894;-3.052;2023-10-13T05:20:32;2;2;
80396;PMS5003;69721;55.894;-3.052;2023-10-13T05:22:58;3;3;
80396;PMS5003;69721;55.894;-3.052;2023-10-13T05:25:23;3;3;
80396;PMS5003;69721;55.894;-3.052;2023-10-13T05:27:49;3;3;
80396;PMS5003;69721;55.894;-3.052;2023-10-13T05:30:14;5;3;
80396;PMS5003;69721;55.894;-3.052;2023-10-13T05:32:40;4;4;
80396;PMS5003;69721;55.894;-3.052;2023-10-13T05:35:05;4;3;
80396;PMS5003;69721;55.894;-3.052;2023-10-13T05:37:31;3;3;
80396;PMS5003;69721;55.894;-3.052;2023-10-13T05:39:57;5;4;
80396;PMS5003;69721;55.894;-3.052;2023-10-13T05:42:23;4;4;
80396;PMS5003;69721;55.894;-3.052;2023-10-13T05:44:48;4;2;
80396;PMS5003;69721;55.894;-3.052;2023-10-13T05:47:14;2;2;
80396;PMS5003;69721;55.894;-3.052;2023-10-13T05:49:39;2;2;
80396;PMS5003;69721;55.894;-3.052;2023-10-13T05:52:05;2;2;
80396;PMS5003;69721;55.894;-3.052;2023-10-13T05:54:30;2;2;
80396;PMS5003;69721;55.894;-3.052;2023-10-13T05:56:56;3;2;
80396;PMS5003;69721;55.894;-3.052;2023-10-13T05:59:21;4;2;
80396;PMS5003;69721;55.894;-3.052;2023-10-13T06:01:47;4;2;
80396;PMS5003;69721;55.894;-3.052;2023-10-13T06:04:12;4;4;
80396;PMS5003;69721;55.894;-3.052;2023-10-13T06:06:38;3;3;
80396;PMS5003;69721;55.894;-3.052;2023-10-13T06:09:03;4;2;
80396;PMS5003;69721;55.894;-3.052;2023-10-13T06:11:29;5;2;
80396;PMS5003;69721;55.894;-3.052;2023-10-13T06:13:54;6;3;
80396;PMS5003;69721;55.894;-3.052;2023-10-13T06:16:20;2;2;
80396;PMS5003;69721;55.894;-3.052;2023-10-13T06:18:45;2;2;
80396;PMS5003;69721;55.894;-3.052;2023-10-13T06:21:11;6;2;
80396;PMS5003;69721;55.894;-3.052;2023-10-13T06:23:36;3;3;
80396;PMS5003;69721;55.894;-3.052;2023-10-13T06:26:02;3;2;
80396;PMS5003;69721;55.894;-3.052;2023-10-13T06:28:27;2;2;
80396;PMS5003;69721;55.894;-3.052;2023-10-13T06:30:55;3;3;
80396;PMS5003;69721;55.894;-3.052;2023-10-13T06:33:18;2;2;
80396;PMS5003;69721;55.894;-3.052;2023-10-13T06:38:13;0;0;
80396;PMS5003;69721;55.894;-3.052;2023-10-13T06:40:44;1;1;
80396;PMS5003;69721;55.894;-3.052;2023-10-13T06:43:04;3;1;
80396;PMS5003;69721;55.894;-3.052;2023-10-13T06:45:30;2;2;
80396;PMS5003;69721;55.894;-3.052;2023-10-13T06:47:55;2;2;
80396;PMS5003;69721;55.894;-3.052;2023-10-13T06:50:21;3;2;
80396;PMS5003;69721;55.894;-3.052;2023-10-13T06:52:46;5;3;
80396;PMS5003;69721;55.894;-3.052;2023-10-13T06:55:12;4;2;
80396;PMS5003;69721;55.894;-3.052;2023-10-13T06:57:37;3;3;
80396;PMS5003;69721;55.894;-3.052;2023-10-13T07:00:03;3;2;
80396;PMS5003;69721;55.894;-3.052;2023-10-13T07:02:28;2;2;
80396;PMS5003;69721;55.894;-3.052;2023-10-13T07:04:54;2;1;
80396;PMS5003;69721;55.894;-3.052;2023-10-13T07:07:19;2;1;
80396;PMS5003;69721;55.894;-3.052;2023-10-13T07:09:45;1;1;
80396;PMS5003;69721;55.894;-3.052;2023-10-13T07:12:11;0;0;
80396;PMS5003;69721;55.894;-3.052;2023-10-13T07:14:36;2;2;
80396;PMS5003;69721;55.894;-3.052;2023-10-13T07:17:02;4;2;
80396;PMS5003;69721;55.894;-3.052;2023-10-13T07:19:28;4;3;
80396;PMS5003;69721;55.894;-3.052;2023-10-13T07:21:54;3;3;
80396;PMS5003;69721;55.894;-3.052;2023-10-13T07:24:19;1;1;
80396;PMS5003;69721;55.894;-3.052;2023-10-13T07:26:44;3;1;
80396;PMS5003;69721;55.894;-3.052;2023-10-13T07:29:10;2;1;
80396;PMS5003;69721;55.894;-3.052;2023-10-13T07:31:35;0;0;
80396;PMS5003;69721;55.894;-3.052;2023-10-13T07:34:01;2;1;
80396;PMS5003;69721;55.894;-3.052;2023-10-13T07:36:26;3;2;
80396;PMS5003;69721;55.894;-3.052;2023-10-13T07:38:52;3;1;
80396;PMS5003;69721;55.894;-3.052;2023-10-13T07:41:17;1;1;
80396;PMS5003;69721;55.894;-3.052;2023-10-13T07:43:44;3;1;
80396;PMS5003;69721;55.894;-3.052;2023-10-13T07:46:09;2;2;
80396;PMS5003;69721;55.894;-3.052;2023-10-13T07:48:35;1;1;
80396;PMS5003;69721;55.894;-3.052;2023-10-13T07:51:00;3;2;
80396;PMS5003;69721;55.894;-3.052;2023-10-13T07:53:26;1;1;
80396;PMS5003;69721;55.894;-3.052;2023-10-13T07:55:51;2;1;
80396;PMS5003;69721;55.894;-3.052;2023-10-13T07:58:17;2;2;
80396;PMS5003;69721;55.894;-3.052;2023-10-13T08:00:42;1;1;
80396;PMS5003;69721;55.894;-3.052;2023-10-13T08:03:08;1;1;
80396;PMS5003;69721;55.894;-3.052;2023-10-13T08:05:33;4;0;
80396;PMS5003;69721;55.894;-3.052;2023-10-13T08:07:59;1;1;
80396;PMS5003;69721;55.894;-3.052;2023-10-13T08:10:24;1;1;
80396;PMS5003;69721;55.894;-3.052;2023-10-13T08:12:50;1;1;
80396;PMS5003;69721;55.894;-3.052;2023-10-13T08:15:15;2;2;
80396;PMS5003;69721;55.894;-3.052;2023-10-13T08:17:40;4;3;
80396;PMS5003;69721;55.894;-3.052;2023-10-13T08:20:06;2;2;
80396;PMS5003;69721;55.894;-3.052;2023-10-13T08:22:31;3;3;
80396;PMS5003;69721;55.894;-3.052;2023-10-13T08:24:57;7;3;
80396;PMS5003;69721;55.894;-3.052;2023-10-13T08:27:22;3;3;
80396;PMS5003;69721;55.894;-3.052;2023-10-13T08:29:48;2;1;
80396;PMS5003;69721;55.894;-3.052;2023-10-13T08:32:13;1;1;
80396;PMS5003;69721;55.894;-3.052;2023-10-13T08:34:39;2;2;
80396;PMS5003;69721;55.894;-3.052;2023-10-13T08:37:04;2;2;
80396;PMS5003;69721;55.894;-3.052;2023-10-13T08:39:30;4;2;
80396;PMS5003;69721;55.894;-3.052;2023-10-13T08:41:55;1;1;
80396;PMS5003;69721;55.894;-3.052;2023-10-13T08:44:21;3;1;
80396;PMS5003;69721;55.894;-3.052;2023-10-13T08:46:46;3;3;
80396;PMS5003;69721;55.894;-3.052;2023-10-13T08:49:12;2;2;
80396;PMS5003;69721;55.894;-3.052;2023-10-13T08:51:37;3;1;
80396;PMS5003;69721;55.894;-3.052;2023-10-13T08:54:03;3;1;
80396;PMS5003;69721;55.894;-3.052;2023-10-13T08:56:28;1;1;
80396;PMS5003;69721;55.894;-3.052;2023-10-13T08:58:53;2;1;
80396;PMS5003;69721;55.894;-3.052;2023-10-13T09:01:19;1;1;
80396;PMS5003;69721;55.894;-3.052;2023-10-13T09:03:44;3;0;
80396;PMS5003;69721;55.894;-3.052;2023-10-13T09:06:11;0;0;
80396;PMS5003;69721;55.894;-3.052;2023-10-13T09:08:35;1;0;
80396;PMS5003;69721;55.894;-3.052;2023-10-13T09:11:02;1;1;
80396;PMS5003;69721;55.894;-3.052;2023-10-13T09:15:52;4;2;
80396;PMS5003;69721;55.894;-3.052;2023-10-13T09:18:23;1;1;
80396;PMS5003;69721;55.894;-3.052;2023-10-13T09:20:42;4;1;
80396;PMS5003;69721;55.894;-3.052;2023-10-13T09:23:08;3;2;
80396;PMS5003;69721;55.894;-3.052;2023-10-13T09:25:34;1;1;
80396;PMS5003;69721;55.894;-3.052;2023-10-13T09:27:59;3;3;
80396;PMS5003;69721;55.894;-3.052;2023-10-13T09:30:24;3;3;
80396;PMS5003;69721;55.894;-3.052;2023-10-13T09:35:16;4;1;
80396;PMS5003;69721;55.894;-3.052;2023-10-13T09:37:41;4;1;
80396;PMS5003;69721;55.894;-3.052;2023-10-13T09:40:07;2;1;
80396;PMS5003;69721;55.894;-3.052;2023-10-13T09:42:32;5;3;
80396;PMS5003;69721;55.894;-3.052;2023-10-13T09:44:57;3;1;
80396;PMS5003;69721;55.894;-3.052;2023-10-13T09:47:23;4;3;
80396;PMS5003;69721;55.894;-3.052;2023-10-13T09:49:48;3;3;
80396;PMS5003;69721;55.894;-3.052;2023-10-13T09:52:14;5;3;
80396;PMS5003;69721;55.894;-3.052;2023-10-13T09:54:39;4;2;
80396;PMS5003;69721;55.894;-3.052;2023-10-13T09:57:05;9;4;
80396;PMS5003;69721;55.894;-3.052;2023-10-13T09:59:31;0;0;
80396;PMS5003;69721;55.894;-3.052;2023-10-13T10:01:55;3;2;
80396;PMS5003;69721;55.894;-3.052;2023-10-13T10:04:21;6;3;
80396;PMS5003;69721;55.894;-3.052;2023-10-13T10:09:12;2;2;
80396;PMS5003;69721;55.894;-3.052;2023-10-13T10:14:05;6;3;
80396;PMS5003;69721;55.894;-3.052;2023-10-13T10:16:33;4;3;
80396;PMS5003;69721;55.894;-3.052;2023-10-13T10:21:19;1;0;
80396;PMS5003;69721;55.894;-3.052;2023-10-13T10:23:48;3;2;
80396;PMS5003;69721;55.894;-3.052;2023-10-13T10:26:10;5;0;
80396;PMS5003;69721;55.894;-3.052;2023-10-13T10:28:35;6;3;
80396;PMS5003;69721;55.894;-3.052;2023-10-13T10:31:04;2;1;
80396;PMS5003;69721;55.894;-3.052;2023-10-13T10:33:29;5;1;
80396;PMS5003;69721;55.894;-3.052;2023-10-13T10:38:17;6;2;
80396;PMS5003;69721;55.894;-3.052;2023-10-13T10:40:48;5;3;
80396;PMS5003;69721;55.894;-3.052;2023-10-13T10:43:08;1;1;
80396;PMS5003;69721;55.894;-3.052;2023-10-13T10:45:33;5;1;
80396;PMS5003;69721;55.894;-3.052;2023-10-13T10:47:58;6;4;
80396;PMS5003;69721;55.894;-3.052;2023-10-13T10:50:25;6;2;
80396;PMS5003;69721;55.894;-3.052;2023-10-13T10:52:49;3;1;
80396;PMS5003;69721;55.894;-3.052;2023-10-13T10:55:19;1;1;
80396;PMS5003;69721;55.894;-3.052;2023-10-13T10:57:40;5;2;
80396;PMS5003;69721;55.894;-3.052;2023-10-13T11:00:06;3;2;
80396;PMS5003;69721;55.894;-3.052;2023-10-13T11:02:31;1;1;
80396;PMS5003;69721;55.894;-3.052;2023-10-13T11:04:56;3;1;
80396;PMS5003;69721;55.894;-3.052;2023-10-13T11:07:22;3;1;
80396;PMS5003;69721;55.894;-3.052;2023-10-13T11:09:47;3;1;
80396;PMS5003;69721;55.894;-3.052;2023-10-13T11:12:13;4;2;
80396;PMS5003;69721;55.894;-3.052;2023-10-13T11:14:38;3;0;
80396;PMS5003;69721;55.894;-3.052;2023-10-13T11:17:03;2;2;
80396;PMS5003;69721;55.894;-3.052;2023-10-13T11:19:34;3;2;
80396;PMS5003;69721;55.894;-3.052;2023-10-13T11:21:55;2;1;
80396;PMS5003;69721;55.894;-3.052;2023-10-13T11:24:20;1;1;
80396;PMS5003;69721;55.894;-3.052;2023-10-13T11:26:46;3;2;
80396;PMS5003;69721;55.894;-3.052;2023-10-13T11:29:11;4;3;
80396;PMS5003;69721;55.894;-3.052;2023-10-13T11:31:37;2;2;
80396;PMS5003;69721;55.894;-3.052;2023-10-13T11:34:02;4;0;
80396;PMS5003;69721;55.894;-3.052;2023-10-13T11:36:28;1;1;
80396;PMS5003;69721;55.894;-3.052;2023-10-13T11:38:53;1;1;
80396;PMS5003;69721;55.894;-3.052;2023-10-13T11:41:18;4;2;
80396;PMS5003;69721;55.894;-3.052;2023-10-13T11:43:45;1;1;
80396;PMS5003;69721;55.894;-3.052;2023-10-13T11:46:09;0;0;
80396;PMS5003;69721;55.894;-3.052;2023-10-13T11:48:36;0;0;
80396;PMS5003;69721;55.894;-3.052;2023-10-13T11:51:01;0;0;
80396;PMS5003;69721;55.894;-3.052;2023-10-13T11:53:27;4;3;
80396;PMS5003;69721;55.894;-3.052;2023-10-13T11:55:52;4;2;
80396;PMS5003;69721;55.894;-3.052;2023-10-13T11:58:18;0;0;
80396;PMS5003;69721;55.894;-3.052;2023-10-13T12:00:43;1;1;
80396;PMS5003;69721;55.894;-3.052;2023-10-13T12:03:09;3;1;
80396;PMS5003;69721;55.894;-3.052;2023-10-13T12:05:34;1;1;
80396;PMS5003;69721;55.894;-3.052;2023-10-13T12:07:59;2;1;
80396;PMS5003;69721;55.894;-3.052;2023-10-13T12:10:25;3;0;
80396;PMS5003;69721;55.894;-3.052;2023-10-13T12:12:50;3;1;
80396;PMS5003;69721;55.894;-3.052;2023-10-13T12:15:16;0;0;
80396;PMS5003;69721;55.894;-3.052;2023-10-13T12:17:41;2;2;
80396;PMS5003;69721;55.894;-3.052;2023-10-13T12:20:07;3;0;
80396;PMS5003;69721;55.894;-3.052;2023-10-13T12:22:32;1;1;
80396;PMS5003;69721;55.894;-3.052;2023-10-13T12:24:57;2;2;
80396;PMS5003;69721;55.894;-3.052;2023-10-13T12:27:23;3;1;
80396;PMS5003;69721;55.894;-3.052;2023-10-13T12:29:49;1;1;
80396;PMS5003;69721;55.894;-3.052;2023-10-13T12:32:14;4;1;
80396;PMS5003;69721;55.894;-3.052;2023-10-13T12:34:39;3;1;
80396;PMS5003;69721;55.894;-3.052;2023-10-13T12:37:05;1;1;
80396;PMS5003;69721;55.894;-3.052;2023-10-13T12:39:31;0;0;
80396;PMS5003;69721;55.894;-3.052;2023-10-13T12:41:57;1;0;
80396;PMS5003;69721;55.894;-3.052;2023-10-13T12:44:22;2;2;
80396;PMS5003;69721;55.894;-3.052;2023-10-13T12:46:47;2;1;
80396;PMS5003;69721;55.894;-3.052;2023-10-13T12:49:13;4;1;
80396;PMS5003;69721;55.894;-3.052;2023-10-13T12:51:38;5;1;
80396;PMS5003;69721;55.894;-3.052;2023-10-13T12:54:04;6;2;
80396;PMS5003;69721;55.894;-3.052;2023-10-13T12:56:29;1;1;
80396;PMS5003;69721;55.894;-3.052;2023-10-13T12:58:55;4;2;
80396;PMS5003;69721;55.894;-3.052;2023-10-13T13:01:20;1;1;
80396;PMS5003;69721;55.894;-3.052;2023-10-13T13:03:46;2;0;
80396;PMS5003;69721;55.894;-3.052;2023-10-13T13:06:15;0;0;
80396;PMS5003;69721;55.894;-3.052;2023-10-13T13:08:36;1;0;
80396;PMS5003;69721;55.894;-3.052;2023-10-13T13:11:02;1;1;
80396;PMS5003;69721;55.894;-3.052;2023-10-13T13:13:27;2;1;
80396;PMS5003;69721;55.894;-3.052;2023-10-13T13:15:53;2;1;
80396;PMS5003;69721;55.894;-3.052;2023-10-13T13:18:18;2;1;
80396;PMS5003;69721;55.894;-3.052;2023-10-13T13:20:44;3;1;
80396;PMS5003;69721;55.894;-3.052;2023-10-13T13:23:09;4;1;
80396;PMS5003;69721;55.894;-3.052;2023-10-13T13:25:35;1;1;
80396;PMS5003;69721;55.894;-3.052;2023-10-13T13:28:00;8;1;
80396;PMS5003;69721;55.894;-3.052;2023-10-13T13:30:25;3;2;
80396;PMS5003;69721;55.894;-3.052;2023-10-13T13:32:51;2;2;
80396;PMS5003;69721;55.894;-3.052;2023-10-13T13:35:16;5;1;
80396;PMS5003;69721;55.894;-3.052;2023-10-13T13:37:42;1;1;
80396;PMS5003;69721;55.894;-3.052;2023-10-13T13:40:08;2;1;
80396;PMS5003;69721;55.894;-3.052;2023-10-13T13:42:33;2;2;
80396;PMS5003;69721;55.894;-3.052;2023-10-13T13:44:58;2;1;
80396;PMS5003;69721;55.894;-3.052;2023-10-13T13:47:23;0;0;
80396;PMS5003;69721;55.894;-3.052;2023-10-13T13:49:49;1;1;
80396;PMS5003;69721;55.894;-3.052;2023-10-13T13:52:14;0;0;
80396;PMS5003;69721;55.894;-3.052;2023-10-13T13:54:40;3;0;
80396;PMS5003;69721;55.894;-3.052;2023-10-13T13:57:06;1;0;
80396;PMS5003;69721;55.894;-3.052;2023-10-13T13:59:31;0;0;
80396;PMS5003;69721;55.894;-3.052;2023-10-13T14:01:57;1;0;
80396;PMS5003;69721;55.894;-3.052;2023-10-13T14:04:22;1;1;
80396;PMS5003;69721;55.894;-3.052;2023-10-13T14:06:48;1;1;
80396;PMS5003;69721;55.894;-3.052;2023-10-13T14:09:13;1;1;
80396;PMS5003;69721;55.894;-3.052;2023-10-13T14:11:38;2;1;
80396;PMS5003;69721;55.894;-3.052;2023-10-13T14:14:04;0;0;
80396;PMS5003;69721;55.894;-3.052;2023-10-13T14:16:30;1;1;
80396;PMS5003;69721;55.894;-3.052;2023-10-13T14:18:55;1;1;
80396;PMS5003;69721;55.894;-3.052;2023-10-13T14:21:20;2;1;
80396;PMS5003;69721;55.894;-3.052;2023-10-13T14:23:46;1;0;
80396;PMS5003;69721;55.894;-3.052;2023-10-13T14:26:12;0;0;
80396;PMS5003;69721;55.894;-3.052;2023-10-13T14:28:37;0;0;
80396;PMS5003;69721;55.894;-3.052;2023-10-13T14:31:04;0;0;
80396;PMS5003;69721;55.894;-3.052;2023-10-13T14:33:27;3;1;
80396;PMS5003;69721;55.894;-3.052;2023-10-13T14:35:53;2;0;
80396;PMS5003;69721;55.894;-3.052;2023-10-13T14:38:19;1;0;
80396;PMS5003;69721;55.894;-3.052;2023-10-13T14:40:45;0;0;
80396;PMS5003;69721;55.894;-3.052;2023-10-13T14:43:10;0;0;
80396;PMS5003;69721;55.894;-3.052;2023-10-13T14:45:36;2;1;
80396;PMS5003;69721;55.894;-3.052;2023-10-13T14:48:01;2;1;
80396;PMS5003;69721;55.894;-3.052;2023-10-13T14:50:26;2;0;
80396;PMS5003;69721;55.894;-3.052;2023-10-13T14:52:52;0;0;
80396;PMS5003;69721;55.894;-3.052;2023-10-13T14:55:17;0;0;
80396;PMS5003;69721;55.894;-3.052;2023-10-13T14:57:43;4;1;
80396;PMS5003;69721;55.894;-3.052;2023-10-13T15:00:09;3;1;
80396;PMS5003;69721;55.894;-3.052;2023-10-13T15:02:34;0;0;
80396;PMS5003;69721;55.894;-3.052;2023-10-13T15:04:59;1;0;
80396;PMS5003;69721;55.894;-3.052;2023-10-13T15:07:25;0;0;
80396;PMS5003;69721;55.894;-3.052;2023-10-13T15:09:50;0;0;
80396;PMS5003;69721;55.894;-3.052;2023-10-13T15:12:16;0;0;
80396;PMS5003;69721;55.894;-3.052;2023-10-13T15:14:41;1;1;
80396;PMS5003;69721;55.894;-3.052;2023-10-13T15:17:06;2;0;
80396;PMS5003;69721;55.894;-3.052;2023-10-13T15:19:32;2;0;
80396;PMS5003;69721;55.894;-3.052;2023-10-13T15:21:57;1;1;
80396;PMS5003;69721;55.894;-3.052;2023-10-13T15:24:23;1;0;
80396;PMS5003;69721;55.894;-3.052;2023-10-13T15:26:48;0;0;
80396;PMS5003;69721;55.894;-3.052;2023-10-13T15:29:14;1;0;
80396;PMS5003;69721;55.894;-3.052;2023-10-13T15:31:39;1;0;
80396;PMS5003;69721;55.894;-3.052;2023-10-13T15:34:05;2;1;
80396;PMS5003;69721;55.894;-3.052;2023-10-13T15:36:30;1;1;
80396;PMS5003;69721;55.894;-3.052;2023-10-13T15:38:55;1;0;
80396;PMS5003;69721;55.894;-3.052;2023-10-13T15:41:21;2;0;
80396;PMS5003;69721;55.894;-3.052;2023-10-13T15:43:47;3;1;
80396;PMS5003;69721;55.894;-3.052;2023-10-13T15:46:14;2;1;
80396;PMS5003;69721;55.894;-3.052;2023-10-13T15:48:38;0;0;
80396;PMS5003;69721;55.894;-3.052;2023-10-13T15:51:04;1;1;
80396;PMS5003;69721;55.894;-3.052;2023-10-13T15:53:29;2;1;
80396;PMS5003;69721;55.894;-3.052;2023-10-13T15:55:55;3;0;
80396;PMS5003;69721;55.894;-3.052;2023-10-13T15:58:20;3;1;
80396;PMS5003;69721;55.894;-3.052;2023-10-13T16:00:46;1;1;
80396;PMS5003;69721;55.894;-3.052;2023-10-13T16:03:11;2;2;
80396;PMS5003;69721;55.894;-3.052;2023-10-13T16:05:37;2;0;
80396;PMS5003;69721;55.894;-3.052;2023-10-13T16:08:02;2;0;
80396;PMS5003;69721;55.894;-3.052;2023-10-13T16:10:27;1;1;
80396;PMS5003;69721;55.894;-3.052;2023-10-13T16:12:53;2;1;
80396;PMS5003;69721;55.894;-3.052;2023-10-13T16:15:19;0;0;
80396;PMS5003;69721;55.894;-3.052;2023-10-13T16:17:46;2;2;
80396;PMS5003;69721;55.894;-3.052;2023-10-13T16:20:10;4;1;
80396;PMS5003;69721;55.894;-3.052;2023-10-13T16:22:36;6;1;
80396;PMS5003;69721;55.894;-3.052;2023-10-13T16:25:01;1;1;
80396;PMS5003;69721;55.894;-3.052;2023-10-13T16:27:27;1;1;
80396;PMS5003;69721;55.894;-3.052;2023-10-13T16:29:52;1;1;
80396;PMS5003;69721;55.894;-3.052;2023-10-13T16:32:18;2;0;
80396;PMS5003;69721;55.894;-3.052;2023-10-13T16:34:43;2;2;
80396;PMS5003;69721;55.894;-3.052;2023-10-13T16:37:09;2;2;
80396;PMS5003;69721;55.894;-3.052;2023-10-13T16:39:34;2;1;